Time;durP1;ratioP1;P1;durP2;ratioP2;P2;SDS_P1;SDS_P2;PMS_P1;PMS_P2;Temp;Humidity;BMP_temperature;BMP_pressure;BME280_temperature;BME280_humidity;BME280_pressure;Samples;Min_cycle;Max_cycle;Signal;HPM_P1;HPM_P2
2022/08/19 00:00:09;;;;;;;33.10;22.40;;;;;21.50;95732.00;;;;8296927;28;20222;-69
2022/08/19 00:04:15;;;;;;;30.77;22.58;;;;;21.50;95728.00;;;;8295840;28;20222;-69
2022/08/19 00:08:51;;;;;;;29.60;21.88;;;;;21.50;95728.00;;;;8296074;28;20217;-70
2022/08/19 00:12:56;;;;;;;29.70;19.95;;;;;21.50;95729.00;;;;8295082;28;20247;-69
2022/08/19 00:16:59;;;;;;;27.02;21.25;;;;;21.40;95728.00;;;;8295553;28;20644;-69
2022/08/19 00:21:03;;;;;;;29.83;20.50;;;;;21.30;95728.00;;;;8295831;28;20269;-69
2022/08/19 00:25:08;;;;;;;30.05;22.27;;;;;21.20;95751.00;;;;8295705;28;20678;-69
2022/08/19 00:29:43;;;;;;;28.83;21.73;;;;;21.10;95760.00;;;;8294950;28;20312;-68
2022/08/19 00:33:50;;;;;;;29.70;21.05;;;;;21.20;95773.00;;;;8294728;28;20544;-68
2022/08/19 00:37:53;;;;;;;28.33;20.33;;;;;21.30;95775.00;;;;8296064;28;20214;-68
2022/08/19 00:41:57;;;;;;;28.05;20.88;;;;;21.50;95777.00;;;;8295148;28;20261;-68
2022/08/19 00:46:33;;;;;;;28.27;20.05;;;;;21.60;95781.00;;;;8296003;28;20567;-68
2022/08/19 00:50:36;;;;;;;29.27;20.35;;;;;21.70;95779.00;;;;8294405;28;20257;-68
2022/08/19 00:54:54;;;;;;;27.27;20.38;;;;;21.70;95779.00;;;;8295319;28;20217;-69
2022/08/19 00:59:31;;;;;;;29.02;19.45;;;;;21.80;95771.00;;;;8295254;28;20305;-69
2022/08/19 01:03:56;;;;;;;28.38;19.50;;;;;21.80;95766.00;;;;8294619;28;20636;-68
2022/08/19 01:08:03;;;;;;;28.23;19.92;;;;;22.00;95775.00;;;;8294015;28;20228;-69
2022/08/19 01:12:37;;;;;;;29.42;18.48;;;;;22.00;95776.00;;;;8295597;28;20250;-69
2022/08/19 01:16:41;;;;;;;25.88;18.73;;;;;22.00;95777.00;;;;8291129;28;20624;-69
2022/08/19 01:20:46;;;;;;;23.15;18.08;;;;;22.10;95792.00;;;;8294830;28;20275;-68
2022/08/19 01:25:23;;;;;;;26.33;18.58;;;;;22.10;95804.00;;;;8291455;28;20305;-70
2022/08/19 01:29:28;;;;;;;26.63;19.10;;;;;22.10;95786.00;;;;8294925;28;20216;-69
2022/08/19 01:33:32;;;;;;;28.15;19.80;;;;;22.10;95780.00;;;;8294072;28;20738;-69
2022/08/19 01:37:44;;;;;;;31.30;19.02;;;;;22.00;95778.00;;;;8295169;28;20258;-69
2022/08/19 01:41:49;;;;;;;27.95;19.05;;;;;21.90;95786.00;;;;8294205;28;20709;-69
2022/08/19 01:46:23;;;;;;;26.35;19.75;;;;;21.90;95803.00;;;;8294286;28;20295;-69
2022/08/19 01:50:27;;;;;;;27.65;19.38;;;;;21.80;95790.00;;;;8293825;28;20589;-69
2022/08/19 01:54:31;;;;;;;25.50;19.35;;;;;21.70;95784.00;;;;8294721;28;20308;-69
2022/08/19 01:58:39;;;;;;;30.50;21.38;;;;;21.60;95781.00;;;;8299696;28;20228;-68
2022/08/19 02:03:11;;;;;;;27.95;20.58;;;;;21.50;95787.00;;;;8300047;28;20232;-68
2022/08/19 02:07:14;;;;;;;29.52;21.95;;;;;21.40;95786.00;;;;8299846;28;20600;-68
2022/08/19 02:11:51;;;;;;;27.73;20.98;;;;;21.30;95790.00;;;;8299853;28;20233;-68
2022/08/19 02:15:56;;;;;;;28.55;20.83;;;;;21.30;95786.00;;;;8299735;28;20214;-68
2022/08/19 02:20:30;;;;;;;29.30;21.15;;;;;21.30;95779.00;;;;8298936;28;20224;-68
2022/08/19 02:24:33;;;;;;;25.85;20.70;;;;;21.20;95785.00;;;;8299129;28;20246;-68
2022/08/19 02:28:37;;;;;;;27.17;19.70;;;;;21.30;95780.00;;;;8299580;28;20304;-68
2022/08/19 02:33:15;;;;;;;28.00;20.45;;;;;21.20;95769.00;;;;8299410;28;20234;-68
2022/08/19 02:41:39;;;;;;;29.20;20.48;;;;;21.00;95758.00;;;;8266928;28;20233;-69
2022/08/19 02:45:42;;;;;;;27.95;19.30;;;;;20.90;95764.00;;;;8266431;28;20224;-69
2022/08/19 02:49:48;;;;;;;25.40;19.33;;;;;20.80;95777.00;;;;8266225;28;20219;-70
2022/08/19 02:53:52;;;;;;;26.80;20.58;;;;;20.80;95769.00;;;;8265380;28;20587;-70
2022/08/19 02:58:28;;;;;;;33.88;22.00;;;;;20.60;95775.00;;;;8265676;28;20225;-70
2022/08/19 03:02:31;;;;;;;33.10;23.20;;;;;20.60;95776.00;;;;8265231;28;20218;-69
2022/08/19 03:07:10;;;;;;;33.45;24.55;;;;;20.60;95775.00;;;;8265250;28;20241;-70
2022/08/19 03:11:44;;;;;;;37.35;24.02;;;;;20.60;95774.00;;;;8265658;28;20218;-70
2022/08/19 03:15:49;;;;;;;37.28;23.20;;;;;20.60;95756.00;;;;8264750;28;20214;-70
2022/08/19 03:19:52;;;;;;;32.90;22.98;;;;;20.60;95771.00;;;;8266024;28;20306;-70
2022/08/19 03:23:58;;;;;;;33.40;23.25;;;;;20.70;95771.00;;;;8264730;28;20314;-69
2022/08/19 03:28:32;;;;;;;33.50;22.73;;;;;20.80;95771.00;;;;8265157;28;20233;-69
2022/08/19 03:32:35;;;;;;;30.23;22.05;;;;;20.90;95775.00;;;;8264819;28;20722;-69
2022/08/19 03:42:28;;;;;;;29.95;21.30;;;;;21.20;95812.00;;;;8286044;28;20585;-69
2022/08/19 03:47:03;;;;;;;27.50;20.77;;;;;21.30;95802.00;;;;8296891;28;20233;-69
2022/08/19 03:51:40;;;;;;;30.88;21.70;;;;;21.40;95794.00;;;;8296274;28;20297;-69
2022/08/19 03:55:44;;;;;;;29.98;22.83;;;;;21.50;95795.00;;;;8296633;28;20329;-70
2022/08/19 04:00:19;;;;;;;29.48;20.60;;;;;21.60;95809.00;;;;8294298;28;20228;-70
2022/08/19 04:04:54;;;;;;;25.58;19.92;;;;;21.60;95805.00;;;;8296546;28;20566;-70
2022/08/19 04:09:28;;;;;;;33.15;21.08;;;;;21.60;95811.00;;;;8295585;28;20658;-69
2022/08/19 04:14:05;;;;;;;25.15;19.52;;;;;21.60;95819.00;;;;8295807;28;20309;-69
2022/08/19 04:18:43;;;;;;;26.02;20.13;;;;;21.70;95838.00;;;;8295211;28;20321;-69
2022/08/19 04:23:21;;;;;;;27.90;20.33;;;;;21.70;95841.00;;;;8295912;28;20807;-69
2022/08/19 04:27:24;;;;;;;27.02;20.40;;;;;21.70;95843.00;;;;8294081;28;20294;-70
2022/08/19 04:32:02;;;;;;;29.30;20.55;;;;;21.80;95842.00;;;;8291711;28;20222;-70
2022/08/19 04:36:42;;;;;;;26.55;19.42;;;;;21.80;95859.00;;;;8293241;28;20233;-70
2022/08/19 04:45:52;;;;;;;28.77;21.13;;;;;21.90;95866.00;;;;8294077;28;20561;-70
2022/08/19 04:50:27;;;;;;;29.67;21.50;;;;;21.90;95857.00;;;;8293350;28;20218;-70
2022/08/19 04:55:06;;;;;;;29.08;21.42;;;;;21.90;95859.00;;;;8294189;28;20231;-69
2022/08/19 04:59:40;;;;;;;29.25;22.08;;;;;21.80;95856.00;;;;8287814;28;20217;-69
2022/08/19 05:04:18;;;;;;;29.80;21.50;;;;;21.80;95873.00;;;;8294772;28;20300;-69
2022/08/19 05:08:54;;;;;;;24.38;19.27;;;;;21.90;95871.00;;;;8294292;28;20218;-69
2022/08/19 05:13:31;;;;;;;28.95;21.27;;;;;21.90;95876.00;;;;8294418;28;20301;-71
2022/08/19 05:22:47;;;;;;;27.50;20.33;;;;;21.90;95892.00;;;;8293257;28;20228;-71
2022/08/19 05:27:21;;;;;;;26.58;20.65;;;;;22.00;95894.00;;;;8294659;28;20323;-71
2022/08/19 05:31:58;;;;;;;26.50;19.42;;;;;22.10;95897.00;;;;8296480;28;20232;-71
2022/08/19 05:36:39;;;;;;;28.25;20.45;;;;;22.10;95904.00;;;;8299778;28;20218;-70
2022/08/19 05:41:10;;;;;;;31.20;20.70;;;;;22.20;95899.00;;;;8299855;28;20602;-70
2022/08/19 05:45:47;;;;;;;25.10;20.08;;;;;22.20;95888.00;;;;8299819;28;20218;-70
2022/08/19 05:50:25;;;;;;;24.85;18.27;;;;;22.10;95893.00;;;;8299977;28;20245;-70
2022/08/19 05:55:00;;;;;;;24.65;19.50;;;;;22.10;95899.00;;;;8300038;28;20632;-70
2022/08/19 05:59:35;;;;;;;24.48;18.88;;;;;22.20;95885.00;;;;8299150;28;20312;-70
2022/08/19 06:04:14;;;;;;;24.45;19.10;;;;;22.20;95887.00;;;;8299631;28;20659;-69
2022/08/19 06:08:51;;;;;;;25.70;18.88;;;;;22.10;95891.00;;;;8295377;28;20623;-70
2022/08/19 06:13:29;;;;;;;25.10;19.17;;;;;22.00;95883.00;;;;8298463;28;20218;-70
2022/08/19 06:18:04;;;;;;;25.50;20.00;;;;;21.80;95884.00;;;;8298695;28;20222;-69
2022/08/19 06:22:43;;;;;;;23.67;18.92;;;;;21.80;95878.00;;;;8298892;28;20666;-70
2022/08/19 06:27:17;;;;;;;27.88;20.20;;;;;21.80;95869.00;;;;8297918;28;20225;-69
2022/08/19 06:31:54;;;;;;;26.15;18.75;;;;;21.90;95866.00;;;;8297742;28;20273;-69
2022/08/19 06:36:33;;;;;;;24.30;18.75;;;;;22.00;95869.00;;;;8298564;28;20598;-69
2022/08/19 06:41:08;;;;;;;21.92;16.58;;;;;22.10;95886.00;;;;8297817;28;20690;-68
2022/08/19 06:45:45;;;;;;;20.15;16.10;;;;;22.20;95892.00;;;;8297603;28;20230;-69
2022/08/19 06:50:20;;;;;;;20.33;16.42;;;;;22.20;95897.00;;;;8298525;28;20229;-68
2022/08/19 06:54:59;;;;;;;19.52;15.95;;;;;22.10;95909.00;;;;8297239;28;20253;-68
2022/08/19 06:59:33;;;;;;;20.30;15.18;;;;;22.10;95916.00;;;;8297417;28;20229;-68
2022/08/19 07:04:10;;;;;;;18.83;15.02;;;;;22.20;95919.00;;;;8297618;28;20217;-68
2022/08/19 07:08:46;;;;;;;19.65;15.85;;;;;22.20;95911.00;;;;8295945;28;20213;-68
2022/08/19 07:13:25;;;;;;;22.35;16.08;;;;;22.30;95906.00;;;;8296567;28;20228;-68
2022/08/19 07:17:58;;;;;;;20.75;15.80;;;;;22.40;95911.00;;;;8297954;28;20653;-68
2022/08/19 07:22:35;;;;;;;22.25;15.95;;;;;22.50;95899.00;;;;8286367;28;20317;-69
2022/08/19 07:27:14;;;;;;;18.70;15.40;;;;;22.70;95888.00;;;;8296047;28;20564;-69
2022/08/19 07:31:36;;;;;;;17.77;14.90;;;;;22.90;95880.00;;;;8296591;28;20229;-69
2022/08/19 07:36:10;;;;;;;19.17;15.32;;;;;23.10;95885.00;;;;8296372;28;20644;-69
2022/08/19 07:40:43;;;;;;;18.70;14.60;;;;;23.30;95899.00;;;;8296289;28;20226;-68
2022/08/19 07:44:46;;;;;;;19.83;14.43;;;;;23.50;95913.00;;;;8296174;28;20217;-68
2022/08/19 07:49:25;;;;;;;18.95;14.10;;;;;23.70;95913.00;;;;8296302;28;20229;-68
2022/08/19 07:53:59;;;;;;;18.25;14.02;;;;;23.90;95905.00;;;;8294858;28;20222;-67
2022/08/19 07:58:37;;;;;;;18.02;13.43;;;;;24.00;95900.00;;;;8297010;28;20222;-68
2022/08/19 08:03:15;;;;;;;20.02;14.60;;;;;24.00;95908.00;;;;8294843;28;20314;-68
2022/08/19 08:12:11;;;;;;;18.88;13.52;;;;;24.10;95907.00;;;;8295358;28;20300;-68
2022/08/19 08:16:46;;;;;;;17.92;14.55;;;;;24.20;95902.00;;;;8294646;28;20280;-68
2022/08/19 08:21:24;;;;;;;18.67;14.73;;;;;24.00;95910.00;;;;8295187;28;20222;-69
2022/08/19 08:26:04;;;;;;;18.02;13.18;;;;;23.70;95901.00;;;;8295084;28;20632;-69
2022/08/19 08:30:41;;;;;;;17.77;15.07;;;;;23.50;95896.00;;;;8294070;28;20225;-68
2022/08/19 08:35:17;;;;;;;19.83;15.48;;;;;23.40;95903.00;;;;8294225;28;20279;-68
2022/08/19 08:39:22;;;;;;;25.23;17.40;;;;;23.40;95895.00;;;;8294662;28;20328;-68
2022/08/19 08:43:56;;;;;;;19.67;15.55;;;;;23.50;95900.00;;;;8294012;28;20244;-68
2022/08/19 08:48:37;;;;;;;21.50;15.90;;;;;23.60;95885.00;;;;8294732;28;20639;-68
2022/08/19 08:53:08;;;;;;;20.73;16.80;;;;;23.80;95881.00;;;;8293734;28;20655;-68
2022/08/19 08:57:42;;;;;;;23.13;15.93;;;;;24.00;95880.00;;;;8294214;28;20298;-68
2022/08/19 09:02:19;;;;;;;16.42;12.95;;;;;24.20;95884.00;;;;8294186;28;20218;-68
2022/08/19 09:07:03;;;;;;;20.10;14.73;;;;;24.30;95861.00;;;;8297513;28;20718;-68
2022/08/19 09:11:42;;;;;;;18.05;13.52;;;;;24.50;95860.00;;;;8299617;28;20229;-68
2022/08/19 09:16:09;;;;;;;17.35;12.80;;;;;24.70;95870.00;;;;8300699;28;20218;-68
2022/08/19 09:20:43;;;;;;;14.77;12.30;;;;;24.80;95869.00;;;;8300479;28;20283;-68
2022/08/19 09:25:21;;;;;;;15.23;11.85;;;;;24.90;95877.00;;;;8296840;28;20241;-68
2022/08/19 09:29:38;;;;;;;18.67;13.38;;;;;25.10;95885.00;;;;8300836;28;20290;-69
2022/08/19 09:34:16;;;;;;;15.52;11.93;;;;;25.30;95870.00;;;;8299847;28;20230;-67
2022/08/19 09:38:51;;;;;;;12.65;10.55;;;;;25.40;95880.00;;;;8299814;28;20228;-67
2022/08/19 09:42:54;;;;;;;14.45;11.02;;;;;25.50;95891.00;;;;8299635;28;20606;-67
2022/08/19 09:47:35;;;;;;;12.82;10.48;;;;;25.40;95899.00;;;;8300009;28;20258;-66
2022/08/19 09:52:07;;;;;;;12.65;11.18;;;;;25.50;95907.00;;;;8287869;28;20226;-66
2022/08/19 09:56:44;;;;;;;17.00;11.18;;;;;25.40;95910.00;;;;8298157;28;20221;-66
2022/08/19 10:01:19;;;;;;;15.13;12.57;;;;;25.20;95915.00;;;;8299439;28;20305;-66
2022/08/19 10:05:55;;;;;;;14.55;11.88;;;;;24.90;95921.00;;;;8296404;28;20225;-66
2022/08/19 10:10:37;;;;;;;18.33;12.68;;;;;24.80;95929.00;;;;8299565;28;20308;-66
2022/08/19 10:15:09;;;;;;;15.68;12.13;;;;;24.80;95930.00;;;;8298944;28;20576;-66
2022/08/19 10:19:43;;;;;;;12.90;11.27;;;;;24.80;95938.00;;;;8297825;28;20321;-66
2022/08/19 10:24:20;;;;;;;17.50;12.95;;;;;24.70;95938.00;;;;8298861;28;20308;-66
2022/08/19 10:28:56;;;;;;;16.98;12.70;;;;;24.80;95929.00;;;;8298823;28;20214;-65
2022/08/19 10:33:30;;;;;;;14.20;11.45;;;;;24.80;95925.00;;;;8298232;28;20652;-65
2022/08/19 10:38:09;;;;;;;12.95;11.52;;;;;24.90;95923.00;;;;8297769;28;20268;-65
2022/08/19 10:48:00;;;;;;;15.05;11.85;;;;;25.00;95909.00;;;;8296994;28;20308;-65
2022/08/19 10:52:38;;;;;;;14.63;12.00;;;;;25.00;95917.00;;;;8297645;28;20222;-65
2022/08/19 10:57:15;;;;;;;17.02;13.15;;;;;25.00;95917.00;;;;8297323;28;20218;-65
2022/08/19 11:01:52;;;;;;;16.40;12.85;;;;;25.10;95915.00;;;;8297083;28;20309;-64
2022/08/19 11:06:01;;;;;;;19.02;12.73;;;;;25.20;95910.00;;;;8285435;28;20659;-65
2022/08/19 11:10:05;;;;;;;16.48;13.15;;;;;25.30;95914.00;;;;8297514;28;20309;-65
2022/08/19 11:14:40;;;;;;;16.17;13.70;;;;;25.20;95904.00;;;;8293660;28;20241;-65
2022/08/19 11:18:45;;;;;;;15.68;12.93;;;;;25.40;95901.00;;;;8297519;28;20550;-65
2022/08/19 11:23:22;;;;;;;15.30;13.23;;;;;25.30;95896.00;;;;8296943;28;20230;-65
2022/08/19 11:27:58;;;;;;;16.10;12.75;;;;;25.30;95908.00;;;;8295993;28;20224;-65
2022/08/19 11:32:16;;;;;;;17.05;12.15;;;;;25.10;95907.00;;;;8296829;28;20339;-65
2022/08/19 11:36:49;;;;;;;14.13;11.52;;;;;24.90;95902.00;;;;8296577;28;20222;-63
2022/08/19 11:41:26;;;;;;;15.45;12.55;;;;;24.90;95900.00;;;;8289557;28;20233;-64
2022/08/19 11:46:06;;;;;;;14.38;10.63;;;;;24.80;95902.00;;;;8295512;28;20240;-64
2022/08/19 11:50:43;;;;;;;13.02;10.90;;;;;24.80;95893.00;;;;8295755;28;20611;-64
2022/08/19 11:55:17;;;;;;;11.60;9.90;;;;;24.70;95889.00;;;;8295565;28;20240;-65
2022/08/19 11:59:54;;;;;;;12.30;10.57;;;;;23.80;95879.00;;;;8295396;28;20591;-71
2022/08/19 12:04:31;;;;;;;15.68;11.57;;;;;23.30;95876.00;;;;8296639;28;20228;-68
2022/08/19 12:09:10;;;;;;;14.25;10.57;;;;;22.70;95880.00;;;;8295084;28;20248;-70
2022/08/19 12:13:18;;;;;;;12.57;10.98;;;;;22.30;95867.00;;;;8294592;28;20292;-70
2022/08/19 12:17:43;;;;;;;15.93;11.30;;;;;22.10;95869.00;;;;8295961;28;20651;-73
2022/08/19 12:22:21;;;;;;;15.02;12.00;;;;;21.90;95869.00;;;;8295081;28;20232;-72
2022/08/19 12:26:58;;;;;;;18.67;12.82;;;;;21.80;95872.00;;;;8294694;28;20249;-73
2022/08/19 12:31:32;;;;;;;20.75;13.30;;;;;21.90;95875.00;;;;8295143;28;20250;-74
2022/08/19 12:35:36;;;;;;;15.45;12.52;;;;;21.90;95877.00;;;;8294731;28;20348;-75
2022/08/19 12:40:11;;;;;;;19.15;14.43;;;;;22.00;95862.00;;;;8293903;28;20662;-76
2022/08/19 12:49:33;;;;;;;22.10;15.07;;;;;22.30;95870.00;;;;8294468;28;20657;-69
2022/08/19 12:54:06;;;;;;;19.92;15.63;;;;;22.40;95875.00;;;;8295010;28;20320;-68
2022/08/19 12:58:41;;;;;;;19.90;14.10;;;;;22.30;95865.00;;;;8294132;28;20313;-65
2022/08/19 13:03:17;;;;;;;20.65;14.57;;;;;22.30;95870.00;;;;8294274;28;20246;-65
2022/08/19 13:07:56;;;;;;;21.05;15.63;;;;;22.40;95878.00;;;;8293220;28;20301;-67
2022/08/19 13:12:02;;;;;;;19.58;14.40;;;;;22.70;95886.00;;;;8294664;28;20222;-67
2022/08/19 13:16:05;;;;;;;19.60;15.75;;;;;22.80;95891.00;;;;8294593;28;20232;-69
2022/08/19 13:20:10;;;;;;;19.15;14.63;;;;;22.70;95890.00;;;;8294403;28;20226;-70
2022/08/19 13:24:15;;;;;;;19.17;15.55;;;;;22.60;95888.00;;;;8293653;28;20260;-70
2022/08/19 13:33:26;;;;;;;23.73;17.52;;;;;22.60;95893.00;;;;8293761;28;20524;-72
2022/08/19 13:42:07;;;;;;;26.05;17.20;;;;;22.70;95882.00;;;;8292634;28;20325;-73
2022/08/19 13:46:13;;;;;;;21.52;16.10;;;;;22.80;95894.00;;;;8295245;28;20271;-73
2022/08/19 13:50:47;;;;;;;21.38;17.08;;;;;22.90;95886.00;;;;8293750;28;20248;-74
2022/08/19 13:54:51;;;;;;;21.33;16.08;;;;;23.00;95885.00;;;;8300122;28;20242;-74
2022/08/19 13:59:29;;;;;;;23.13;15.77;;;;;23.10;95891.00;;;;8300312;28;20229;-73
2022/08/19 14:03:34;;;;;;;22.98;17.75;;;;;23.10;95889.00;;;;8300305;28;20230;-73
2022/08/19 14:07:37;;;;;;;21.23;15.75;;;;;23.10;95886.00;;;;8300259;28;20237;-73
2022/08/19 14:12:14;;;;;;;20.52;15.77;;;;;23.20;95876.00;;;;8300491;28;20620;-71
2022/08/19 14:16:30;;;;;;;21.05;16.80;;;;;23.30;95869.00;;;;8289104;28;20225;-71
2022/08/19 14:21:04;;;;;;;23.98;16.02;;;;;23.50;95868.00;;;;8299108;28;20222;-71
2022/08/19 14:25:22;;;;;;;19.33;16.23;;;;;23.70;95869.00;;;;8300580;28;20260;-72
2022/08/19 14:29:25;;;;;;;19.75;16.10;;;;;23.80;95876.00;;;;8299025;28;20636;-73
2022/08/19 14:33:30;;;;;;;17.67;14.82;;;;;24.00;95871.00;;;;8299832;28;20587;-73
2022/08/19 14:37:34;;;;;;;16.63;13.30;;;;;23.90;95864.00;;;;8299759;28;20722;-73
2022/08/19 14:42:14;;;;;;;17.02;13.48;;;;;23.80;95864.00;;;;8299921;28;20544;-73
2022/08/19 14:46:20;;;;;;;16.63;13.38;;;;;24.00;95862.00;;;;8298649;28;20267;-73
2022/08/19 14:50:25;;;;;;;17.88;13.73;;;;;24.20;95859.00;;;;8299094;28;20240;-72
2022/08/19 14:54:28;;;;;;;15.57;11.52;;;;;24.30;95859.00;;;;8298694;28;20313;-72
2022/08/19 14:59:06;;;;;;;17.77;11.30;;;;;24.00;95864.00;;;;8299179;28;20284;-72
2022/08/19 15:03:43;;;;;;;12.50;10.95;;;;;23.60;95863.00;;;;8299123;28;20543;-72
2022/08/19 15:07:48;;;;;;;14.02;11.95;;;;;23.60;95858.00;;;;8298688;28;20594;-71
2022/08/19 15:11:51;;;;;;;16.90;11.57;;;;;23.60;95861.00;;;;8298102;28;20520;-71
2022/08/19 15:16:29;;;;;;;16.90;12.98;;;;;23.60;95865.00;;;;8297405;28;20324;-71
2022/08/19 15:21:02;;;;;;;16.25;13.00;;;;;23.80;95863.00;;;;8297441;28;20241;-74
2022/08/19 15:25:09;;;;;;;18.80;13.40;;;;;24.00;95872.00;;;;8298072;28;20555;-74
2022/08/19 15:29:41;;;;;;;17.75;13.90;;;;;24.00;95885.00;;;;8297716;28;20224;-74
2022/08/19 15:34:18;;;;;;;19.58;14.02;;;;;24.10;95872.00;;;;8298268;28;20616;-74
2022/08/19 15:38:55;;;;;;;16.83;13.75;;;;;24.10;95878.00;;;;8296746;28;20222;-74
2022/08/19 15:42:59;;;;;;;16.13;13.13;;;;;24.10;95870.00;;;;8297161;28;20324;-75
2022/08/19 15:47:30;;;;;;;19.20;15.10;;;;;24.10;95872.00;;;;8296756;28;20622;-73
2022/08/19 15:52:05;;;;;;;17.85;14.25;;;;;24.10;95869.00;;;;8296774;28;20222;-74
2022/08/19 16:10:16;;;;;;;19.73;14.75;;;;;23.30;95872.00;;;;8296347;28;20677;-75
2022/08/19 16:14:51;;;;;;;18.95;14.15;;;;;23.20;95853.00;;;;8284214;28;20229;-75
2022/08/19 16:19:32;;;;;;;19.30;14.52;;;;;23.00;95844.00;;;;8296025;28;20221;-75
2022/08/19 16:24:02;;;;;;;19.67;13.60;;;;;22.90;95851.00;;;;8295866;28;20226;-75
2022/08/19 16:28:39;;;;;;;21.25;14.02;;;;;22.90;95861.00;;;;8295796;28;20571;-76
2022/08/19 16:33:16;;;;;;;18.63;14.50;;;;;22.80;95864.00;;;;8295801;28;20301;-76
2022/08/19 16:37:26;;;;;;;18.40;13.50;;;;;22.70;95868.00;;;;8295598;28;20226;-76
2022/08/19 16:42:00;;;;;;;18.08;13.05;;;;;22.60;95878.00;;;;8295277;28;20255;-76
2022/08/19 16:51:20;;;;;;;19.75;13.98;;;;;22.40;95878.00;;;;8294743;28;20229;-73
2022/08/19 16:55:56;;;;;;;15.98;12.20;;;;;22.30;95885.00;;;;8294443;28;20233;-74
2022/08/19 17:00:30;;;;;;;15.90;13.05;;;;;22.10;95888.00;;;;8294312;28;20229;-75
2022/08/19 17:05:07;;;;;;;17.10;12.27;;;;;22.00;95885.00;;;;8294251;28;20279;-71
2022/08/19 17:09:41;;;;;;;18.27;12.35;;;;;21.90;95895.00;;;;8294710;28;20242;-71
2022/08/19 17:14:19;;;;;;;16.38;11.35;;;;;21.80;95903.00;;;;8294426;28;20427;-72
2022/08/19 17:19:01;;;;;;;16.30;12.18;;;;;21.60;95908.00;;;;8293205;28;20648;-71
2022/08/19 17:23:34;;;;;;;16.70;11.05;;;;;21.50;95902.00;;;;8294048;28;20639;-73
2022/08/19 17:28:11;;;;;;;16.45;11.57;;;;;21.30;95904.00;;;;8296573;28;20226;-74
2022/08/19 17:32:48;;;;;;;12.90;10.23;;;;;21.10;95914.00;;;;8299345;28;20217;-73
2022/08/19 17:37:26;;;;;;;14.77;10.77;;;;;21.00;95919.00;;;;8292468;28;20244;-74
2022/08/19 17:42:01;;;;;;;14.93;9.25;;;;;21.00;95916.00;;;;8300097;28;20305;-74
2022/08/19 17:51:22;;;;;;;13.48;10.13;;;;;20.90;95923.00;;;;8299960;28;20227;-74
2022/08/19 17:55:28;;;;;;;12.60;9.93;;;;;21.00;95934.00;;;;8301323;28;20234;-74
2022/08/19 18:00:01;;;;;;;13.68;9.88;;;;;21.00;95947.00;;;;8298961;28;20221;-73
2022/08/19 18:04:38;;;;;;;12.23;10.45;;;;;21.10;95957.00;;;;8299812;28;20222;-74
2022/08/19 18:09:15;;;;;;;17.60;12.32;;;;;21.10;95945.00;;;;8300112;28;20222;-74
2022/08/19 18:13:53;;;;;;;15.85;11.85;;;;;21.10;95957.00;;;;8299624;28;20245;-74
2022/08/19 18:18:28;;;;;;;16.55;12.43;;;;;20.90;95962.00;;;;8299168;28;20226;-72
2022/08/19 18:23:02;;;;;;;17.48;13.07;;;;;20.70;95973.00;;;;8298420;28;20775;-66
2022/08/19 18:27:37;;;;;;;17.98;12.93;;;;;20.50;95981.00;;;;8300113;28;20244;-66
2022/08/19 18:32:14;;;;;;;18.10;13.10;;;;;20.50;95970.00;;;;8298529;28;20229;-67
2022/08/19 18:36:50;;;;;;;19.83;13.80;;;;;20.40;95973.00;;;;8299208;28;20564;-67
2022/08/19 18:50:26;;;;;;;21.23;14.30;;;;;20.40;95976.00;;;;8298319;28;20544;-69
2022/08/19 18:55:00;;;;;;;23.08;15.68;;;;;20.30;95985.00;;;;8298532;28;20317;-70
2022/08/19 18:59:42;;;;;;;21.65;16.08;;;;;20.30;95992.00;;;;8298626;28;20574;-71
2022/08/19 19:04:12;;;;;;;19.25;14.40;;;;;20.30;95999.00;;;;8297455;28;20238;-70
2022/08/19 19:08:49;;;;;;;19.85;14.48;;;;;20.30;96000.00;;;;8297740;28;20233;-69
2022/08/19 19:13:27;;;;;;;20.58;14.40;;;;;20.30;95995.00;;;;8296851;28;20297;-69
2022/08/19 19:17:32;;;;;;;19.20;14.27;;;;;20.30;96000.00;;;;8298131;28;20604;-71
2022/08/19 19:22:09;;;;;;;19.08;13.73;;;;;20.30;96000.00;;;;8297506;28;20316;-71
2022/08/19 19:26:44;;;;;;;20.00;14.40;;;;;20.40;96010.00;;;;8297450;28;20260;-71
2022/08/19 19:31:25;;;;;;;15.70;11.95;;;;;20.40;96009.00;;;;8297061;28;20947;-70
2022/08/19 19:35:58;;;;;;;18.30;13.35;;;;;20.40;96016.00;;;;8297481;28;20560;-70
2022/08/19 19:40:35;;;;;;;19.00;12.63;;;;;20.50;96026.00;;;;8296200;28;20214;-72
2022/08/19 19:45:12;;;;;;;14.02;11.50;;;;;20.50;96033.00;;;;8296377;28;20237;-71
2022/08/19 19:49:51;;;;;;;12.05;10.00;;;;;20.60;96043.00;;;;8294291;28;20272;-72
2022/08/19 19:54:55;;;;;;;14.98;9.90;;;;;20.70;96042.00;;;;8296700;28;20218;-72
2022/08/19 19:59:26;;;;;;;12.70;9.55;;;;;20.70;96049.00;;;;8294839;28;20230;-72
2022/08/19 20:04:03;;;;;;;14.43;9.43;;;;;20.70;96049.00;;;;8296246;28;20218;-71
2022/08/19 20:13:17;;;;;;;12.90;9.48;;;;;20.80;96064.00;;;;8296211;28;20213;-72
2022/08/19 20:17:50;;;;;;;14.10;10.23;;;;;20.80;96061.00;;;;8295885;28;20214;-72
2022/08/19 20:22:27;;;;;;;13.18;10.73;;;;;20.80;96061.00;;;;8296118;28;20222;-72
2022/08/19 20:27:03;;;;;;;14.93;10.18;;;;;20.80;96066.00;;;;8295195;28;20218;-73
2022/08/19 20:31:41;;;;;;;13.68;10.73;;;;;20.80;96069.00;;;;8295847;28;20225;-70
2022/08/19 20:36:18;;;;;;;13.40;10.77;;;;;20.80;96055.00;;;;8292306;28;20648;-71
2022/08/19 20:40:22;;;;;;;10.32;9.20;;;;;20.90;96056.00;;;;8295801;28;20304;-71
2022/08/19 20:44:56;;;;;;;12.43;10.10;;;;;21.00;96056.00;;;;8295376;28;20295;-70
2022/08/19 20:49:34;;;;;;;11.30;9.80;;;;;21.00;96053.00;;;;8295079;28;20289;-70
2022/08/19 20:54:03;;;;;;;14.63;9.50;;;;;20.90;96058.00;;;;8295071;28;20299;-71
2022/08/19 20:58:39;;;;;;;12.05;9.85;;;;;20.90;96064.00;;;;8292851;28;20214;-70
2022/08/19 21:03:14;;;;;;;13.82;9.70;;;;;20.80;96061.00;;;;8294801;28;20225;-69
2022/08/19 21:07:17;;;;;;;15.30;9.98;;;;;20.70;96060.00;;;;8295306;28;20296;-70
2022/08/19 21:11:54;;;;;;;14.68;10.93;;;;;20.70;96067.00;;;;8295989;28;20293;-71
2022/08/19 21:15:59;;;;;;;13.20;10.38;;;;;20.60;96076.00;;;;8294848;28;20297;-71
2022/08/19 21:20:04;;;;;;;12.93;10.27;;;;;20.50;96077.00;;;;8293937;28;20226;-71
2022/08/19 21:24:07;;;;;;;14.68;10.00;;;;;20.50;96089.00;;;;8294676;28;20298;-71
2022/08/19 21:28:11;;;;;;;11.05;9.20;;;;;20.50;96081.00;;;;8284723;28;20253;-71
2022/08/19 21:32:48;;;;;;;10.43;8.48;;;;;20.50;96085.00;;;;8294798;28;20713;-71
2022/08/19 21:36:54;;;;;;;10.30;8.45;;;;;20.40;96093.00;;;;8294432;28;20725;-71
2022/08/19 21:40:57;;;;;;;12.10;8.32;;;;;20.40;96100.00;;;;8294991;28;20309;-73
2022/08/19 21:45:34;;;;;;;12.15;8.60;;;;;20.40;96105.00;;;;8294975;28;20234;-72
2022/08/19 21:49:39;;;;;;;10.82;8.05;;;;;20.40;96111.00;;;;8294611;28;20229;-73
2022/08/19 21:54:12;;;;;;;10.35;7.60;;;;;20.30;96124.00;;;;8294462;28;20264;-72
2022/08/19 21:58:16;;;;;;;9.93;7.93;;;;;20.30;96131.00;;;;8294552;28;20249;-72
2022/08/19 22:02:19;;;;;;;8.27;7.28;;;;;20.30;96137.00;;;;8293632;28;20727;-72
2022/08/19 22:06:56;;;;;;;8.82;7.30;;;;;20.20;96133.00;;;;8294249;28;20663;-73
2022/08/19 22:10:59;;;;;;;7.78;6.85;;;;;20.20;96136.00;;;;8293611;28;20218;-73
2022/08/19 22:15:05;;;;;;;7.93;7.05;;;;;20.00;96126.00;;;;8298907;28;20702;-73
2022/08/19 22:19:08;;;;;;;11.52;8.05;;;;;19.70;96122.00;;;;8299262;28;20627;-71
2022/08/19 22:23:13;;;;;;;9.52;7.40;;;;;19.50;96137.00;;;;8299243;28;20225;-70
2022/08/19 22:27:17;;;;;;;9.25;7.95;;;;;19.40;96129.00;;;;8300253;28;20624;-70
2022/08/19 22:31:51;;;;;;;12.77;7.25;;;;;19.30;96126.00;;;;8299241;28;20539;-70
2022/08/19 22:36:00;;;;;;;10.25;7.85;;;;;19.20;96134.00;;;;8299171;28;20592;-70
2022/08/19 22:40:06;;;;;;;8.73;7.93;;;;;19.20;96135.00;;;;8298752;28;20659;-70
2022/08/19 22:44:43;;;;;;;7.97;7.05;;;;;19.20;96139.00;;;;8288820;28;20214;-71
2022/08/19 22:48:47;;;;;;;10.35;7.47;;;;;19.10;96128.00;;;;8298238;28;20256;-68
2022/08/19 22:53:06;;;;;;;14.38;8.10;;;;;19.20;96136.00;;;;8299168;28;20240;-68
2022/08/19 22:57:11;;;;;;;8.10;6.85;;;;;19.20;96134.00;;;;8297383;28;20222;-68
2022/08/19 23:01:15;;;;;;;8.23;6.45;;;;;19.20;96139.00;;;;8298051;28;20606;-69